sensor_id;sensor_type;location;lat;lon;timestamp;temperature;humidity
3818;DHT22;1924;48.078;11.516;2023-09-30T00:01:00;17.70;99.90
3818;DHT22;1924;48.078;11.516;2023-09-30T00:03:27;17.70;99.90
3818;DHT22;1924;48.078;11.516;2023-09-30T00:05:54;17.70;99.90
3818;DHT22;1924;48.078;11.516;2023-09-30T00:08:21;17.60;99.90
3818;DHT22;1924;48.078;11.516;2023-09-30T00:10:49;17.70;99.90
3818;DHT22;1924;48.078;11.516;2023-09-30T00:13:18;17.60;99.90
3818;DHT22;1924;48.078;11.516;2023-09-30T00:15:45;17.60;99.90
3818;DHT22;1924;48.078;11.516;2023-09-30T00:18:12;17.60;99.90
3818;DHT22;1924;48.078;11.516;2023-09-30T00:20:39;17.50;99.90
3818;DHT22;1924;48.078;11.516;2023-09-30T00:23:06;17.50;99.90
3818;DHT22;1924;48.078;11.516;2023-09-30T00:25:33;17.50;99.90
3818;DHT22;1924;48.078;11.516;2023-09-30T00:28:01;17.50;99.90
3818;DHT22;1924;48.078;11.516;2023-09-30T00:30:28;17.60;99.90
3818;DHT22;1924;48.078;11.516;2023-09-30T00:32:55;17.60;99.90
3818;DHT22;1924;48.078;11.516;2023-09-30T00:35:21;17.70;99.90
3818;DHT22;1924;48.078;11.516;2023-09-30T00:37:48;17.70;99.90
3818;DHT22;1924;48.078;11.516;2023-09-30T00:40:15;17.70;99.90
3818;DHT22;1924;48.078;11.516;2023-09-30T00:42:42;17.70;99.90
3818;DHT22;1924;48.078;11.516;2023-09-30T00:45:11;17.70;99.90
3818;DHT22;1924;48.078;11.516;2023-09-30T00:47:38;17.60;99.90
3818;DHT22;1924;48.078;11.516;2023-09-30T00:50:06;17.60;99.90
3818;DHT22;1924;48.078;11.516;2023-09-30T00:52:36;17.60;99.90
3818;DHT22;1924;48.078;11.516;2023-09-30T00:55:05;17.60;99.90
3818;DHT22;1924;48.078;11.516;2023-09-30T00:57:33;17.60;99.90
3818;DHT22;1924;48.078;11.516;2023-09-30T01:00:01;17.50;99.90
3818;DHT22;1924;48.078;11.516;2023-09-30T01:02:30;17.40;99.90
3818;DHT22;1924;48.078;11.516;2023-09-30T01:04:57;17.40;99.90
3818;DHT22;1924;48.078;11.516;2023-09-30T01:07:24;17.40;99.90
3818;DHT22;1924;48.078;11.516;2023-09-30T01:09:51;17.30;99.90
3818;DHT22;1924;48.078;11.516;2023-09-30T01:12:18;17.20;99.90
3818;DHT22;1924;48.078;11.516;2023-09-30T01:14:45;17.20;99.90
3818;DHT22;1924;48.078;11.516;2023-09-30T01:17:11;17.20;99.90
3818;DHT22;1924;48.078;11.516;2023-09-30T01:19:40;17.10;99.90
3818;DHT22;1924;48.078;11.516;2023-09-30T01:22:09;17.10;99.90
3818;DHT22;1924;48.078;11.516;2023-09-30T01:24:40;17.10;99.90
3818;DHT22;1924;48.078;11.516;2023-09-30T04:01:04;16.50;99.90
3818;DHT22;1924;48.078;11.516;2023-09-30T04:03:31;16.50;99.90
3818;DHT22;1924;48.078;11.516;2023-09-30T04:05:59;16.50;99.90
3818;DHT22;1924;48.078;11.516;2023-09-30T04:08:26;16.60;99.90
3818;DHT22;1924;48.078;11.516;2023-09-30T04:10:52;16.60;99.90
3818;DHT22;1924;48.078;11.516;2023-09-30T04:13:21;16.60;99.90
3818;DHT22;1924;48.078;11.516;2023-09-30T04:15:47;16.60;99.90
3818;DHT22;1924;48.078;11.516;2023-09-30T04:18:16;16.60;99.90
3818;DHT22;1924;48.078;11.516;2023-09-30T04:20:45;16.50;99.90
3818;DHT22;1924;48.078;11.516;2023-09-30T04:23:12;16.50;99.90
3818;DHT22;1924;48.078;11.516;2023-09-30T04:25:40;16.50;99.90
3818;DHT22;1924;48.078;11.516;2023-09-30T04:28:09;16.40;99.90
3818;DHT22;1924;48.078;11.516;2023-09-30T04:30:35;16.40;99.90
3818;DHT22;1924;48.078;11.516;2023-09-30T04:33:03;16.40;99.90
3818;DHT22;1924;48.078;11.516;2023-09-30T04:35:35;16.40;99.90
3818;DHT22;1924;48.078;11.516;2023-09-30T04:38:03;16.40;99.90
3818;DHT22;1924;48.078;11.516;2023-09-30T04:40:30;16.40;99.90
3818;DHT22;1924;48.078;11.516;2023-09-30T04:42:59;16.30;99.90
3818;DHT22;1924;48.078;11.516;2023-09-30T04:45:26;16.30;99.90
3818;DHT22;1924;48.078;11.516;2023-09-30T04:47:53;16.20;99.90
3818;DHT22;1924;48.078;11.516;2023-09-30T04:50:21;16.20;99.90
3818;DHT22;1924;48.078;11.516;2023-09-30T04:52:50;16.20;99.90
3818;DHT22;1924;48.078;11.516;2023-09-30T04:55:17;16.10;99.90
3818;DHT22;1924;48.078;11.516;2023-09-30T04:57:45;16.10;99.90
3818;DHT22;1924;48.078;11.516;2023-09-30T05:00:13;16.10;99.90
3818;DHT22;1924;48.078;11.516;2023-09-30T05:02:40;16.20;99.90
3818;DHT22;1924;48.078;11.516;2023-09-30T05:05:08;16.10;99.90
3818;DHT22;1924;48.078;11.516;2023-09-30T05:07:36;16.10;99.90
3818;DHT22;1924;48.078;11.516;2023-09-30T05:10:05;16.00;99.90
3818;DHT22;1924;48.078;11.516;2023-09-30T05:12:36;16.00;99.90
3818;DHT22;1924;48.078;11.516;2023-09-30T05:15:03;16.00;99.90
3818;DHT22;1924;48.078;11.516;2023-09-30T05:17:31;16.00;99.90
3818;DHT22;1924;48.078;11.516;2023-09-30T05:19:59;16.00;99.90
3818;DHT22;1924;48.078;11.516;2023-09-30T05:22:25;16.00;99.90
3818;DHT22;1924;48.078;11.516;2023-09-30T05:24:52;16.00;99.90
3818;DHT22;1924;48.078;11.516;2023-09-30T05:27:20;16.00;99.90
3818;DHT22;1924;48.078;11.516;2023-09-30T05:29:47;16.00;99.90
3818;DHT22;1924;48.078;11.516;2023-09-30T05:32:14;15.90;99.90
3818;DHT22;1924;48.078;11.516;2023-09-30T05:34:41;16.00;99.90
3818;DHT22;1924;48.078;11.516;2023-09-30T05:37:09;16.00;99.90
3818;DHT22;1924;48.078;11.516;2023-09-30T05:39:37;16.00;99.90
3818;DHT22;1924;48.078;11.516;2023-09-30T05:42:04;16.00;99.90
3818;DHT22;1924;48.078;11.516;2023-09-30T05:44:32;16.00;99.90
3818;DHT22;1924;48.078;11.516;2023-09-30T05:46:59;16.00;99.90
3818;DHT22;1924;48.078;11.516;2023-09-30T05:49:26;16.00;99.90
3818;DHT22;1924;48.078;11.516;2023-09-30T05:51:53;16.00;99.90
3818;DHT22;1924;48.078;11.516;2023-09-30T05:54:20;16.00;99.90
3818;DHT22;1924;48.078;11.516;2023-09-30T05:56:48;16.00;99.90
3818;DHT22;1924;48.078;11.516;2023-09-30T05:59:15;16.10;99.90
3818;DHT22;1924;48.078;11.516;2023-09-30T06:01:43;16.20;99.90
3818;DHT22;1924;48.078;11.516;2023-09-30T06:04:11;16.30;99.90
3818;DHT22;1924;48.078;11.516;2023-09-30T06:06:38;16.30;99.90
3818;DHT22;1924;48.078;11.516;2023-09-30T06:09:06;16.40;99.90
3818;DHT22;1924;48.078;11.516;2023-09-30T06:11:34;16.40;99.90
3818;DHT22;1924;48.078;11.516;2023-09-30T06:14:01;16.40;99.90
3818;DHT22;1924;48.078;11.516;2023-09-30T06:16:31;16.50;99.90
3818;DHT22;1924;48.078;11.516;2023-09-30T06:19:00;16.50;99.90
3818;DHT22;1924;48.078;11.516;2023-09-30T06:21:26;16.50;99.90
3818;DHT22;1924;48.078;11.516;2023-09-30T06:23:54;16.50;99.90
3818;DHT22;1924;48.078;11.516;2023-09-30T06:26:21;16.40;99.90
3818;DHT22;1924;48.078;11.516;2023-09-30T06:28:50;16.40;99.90
3818;DHT22;1924;48.078;11.516;2023-09-30T06:31:19;16.50;99.90
3818;DHT22;1924;48.078;11.516;2023-09-30T06:33:46;16.60;99.90
3818;DHT22;1924;48.078;11.516;2023-09-30T06:36:14;16.60;99.90
3818;DHT22;1924;48.078;11.516;2023-09-30T06:38:42;16.70;99.90
3818;DHT22;1924;48.078;11.516;2023-09-30T06:41:15;16.70;99.90
3818;DHT22;1924;48.078;11.516;2023-09-30T06:43:42;16.80;99.90
3818;DHT22;1924;48.078;11.516;2023-09-30T06:46:09;16.70;99.90
3818;DHT22;1924;48.078;11.516;2023-09-30T06:48:36;16.80;99.90
3818;DHT22;1924;48.078;11.516;2023-09-30T06:51:06;16.70;99.90
3818;DHT22;1924;48.078;11.516;2023-09-30T06:53:34;16.80;99.90
3818;DHT22;1924;48.078;11.516;2023-09-30T06:56:04;16.80;99.90
3818;DHT22;1924;48.078;11.516;2023-09-30T06:58:31;16.90;99.90
3818;DHT22;1924;48.078;11.516;2023-09-30T07:00:58;17.00;99.90
3818;DHT22;1924;48.078;11.516;2023-09-30T07:03:25;17.00;99.90
3818;DHT22;1924;48.078;11.516;2023-09-30T07:05:51;17.00;99.90
3818;DHT22;1924;48.078;11.516;2023-09-30T07:08:19;17.10;99.90
3818;DHT22;1924;48.078;11.516;2023-09-30T07:10:48;17.10;99.90
3818;DHT22;1924;48.078;11.516;2023-09-30T07:13:15;17.20;99.90
3818;DHT22;1924;48.078;11.516;2023-09-30T07:15:43;17.30;99.90
3818;DHT22;1924;48.078;11.516;2023-09-30T07:18:10;17.40;99.90
3818;DHT22;1924;48.078;11.516;2023-09-30T07:20:38;17.50;99.90
3818;DHT22;1924;48.078;11.516;2023-09-30T07:23:05;17.40;99.90
3818;DHT22;1924;48.078;11.516;2023-09-30T07:25:34;17.30;99.90
3818;DHT22;1924;48.078;11.516;2023-09-30T07:28:03;17.40;99.90
3818;DHT22;1924;48.078;11.516;2023-09-30T07:30:30;17.50;99.90
3818;DHT22;1924;48.078;11.516;2023-09-30T07:32:56;17.50;99.90
3818;DHT22;1924;48.078;11.516;2023-09-30T07:35:23;17.50;99.90
3818;DHT22;1924;48.078;11.516;2023-09-30T07:37:50;17.50;99.90
3818;DHT22;1924;48.078;11.516;2023-09-30T07:40:21;17.50;99.90
3818;DHT22;1924;48.078;11.516;2023-09-30T07:42:48;17.50;99.90
3818;DHT22;1924;48.078;11.516;2023-09-30T07:45:17;17.60;99.90
3818;DHT22;1924;48.078;11.516;2023-09-30T07:47:45;17.60;99.90
3818;DHT22;1924;48.078;11.516;2023-09-30T07:50:13;17.50;99.90
3818;DHT22;1924;48.078;11.516;2023-09-30T07:52:39;17.50;99.90
3818;DHT22;1924;48.078;11.516;2023-09-30T07:55:08;17.50;99.90
3818;DHT22;1924;48.078;11.516;2023-09-30T07:57:35;17.40;99.90
3818;DHT22;1924;48.078;11.516;2023-09-30T08:00:02;17.30;99.90
3818;DHT22;1924;48.078;11.516;2023-09-30T08:02:34;17.30;99.90
3818;DHT22;1924;48.078;11.516;2023-09-30T08:05:02;17.40;99.90
3818;DHT22;1924;48.078;11.516;2023-09-30T08:07:29;17.40;99.90
3818;DHT22;1924;48.078;11.516;2023-09-30T08:09:56;17.30;99.90
3818;DHT22;1924;48.078;11.516;2023-09-30T08:12:23;17.50;99.90
3818;DHT22;1924;48.078;11.516;2023-09-30T08:14:50;17.70;99.90
3818;DHT22;1924;48.078;11.516;2023-09-30T08:17:17;17.90;99.90
3818;DHT22;1924;48.078;11.516;2023-09-30T08:19:46;17.80;99.90
3818;DHT22;1924;48.078;11.516;2023-09-30T08:22:13;17.80;99.90
3818;DHT22;1924;48.078;11.516;2023-09-30T08:24:40;17.80;99.90
3818;DHT22;1924;48.078;11.516;2023-09-30T08:27:07;17.80;99.90
3818;DHT22;1924;48.078;11.516;2023-09-30T08:29:34;18.00;99.90
3818;DHT22;1924;48.078;11.516;2023-09-30T08:32:02;18.10;99.90
3818;DHT22;1924;48.078;11.516;2023-09-30T08:34:29;18.20;99.90
3818;DHT22;1924;48.078;11.516;2023-09-30T08:36:58;18.30;99.90
3818;DHT22;1924;48.078;11.516;2023-09-30T08:39:26;18.10;99.90
3818;DHT22;1924;48.078;11.516;2023-09-30T08:41:55;18.10;99.90
3818;DHT22;1924;48.078;11.516;2023-09-30T08:44:23;18.20;99.90
3818;DHT22;1924;48.078;11.516;2023-09-30T08:46:50;18.20;99.90
3818;DHT22;1924;48.078;11.516;2023-09-30T08:49:21;18.10;99.90
3818;DHT22;1924;48.078;11.516;2023-09-30T08:51:49;18.20;99.90
3818;DHT22;1924;48.078;11.516;2023-09-30T08:54:18;18.00;99.90
3818;DHT22;1924;48.078;11.516;2023-09-30T08:56:47;18.00;99.90
3818;DHT22;1924;48.078;11.516;2023-09-30T08:59:15;18.00;99.90
3818;DHT22;1924;48.078;11.516;2023-09-30T09:01:43;17.90;99.90
3818;DHT22;1924;48.078;11.516;2023-09-30T09:04:10;17.90;99.90
3818;DHT22;1924;48.078;11.516;2023-09-30T09:06:37;17.90;99.90
3818;DHT22;1924;48.078;11.516;2023-09-30T09:09:13;18.10;99.90
3818;DHT22;1924;48.078;11.516;2023-09-30T09:11:43;18.20;99.90
3818;DHT22;1924;48.078;11.516;2023-09-30T09:14:10;18.20;99.90
3818;DHT22;1924;48.078;11.516;2023-09-30T09:16:36;18.10;99.90
3818;DHT22;1924;48.078;11.516;2023-09-30T09:19:13;18.20;99.90
3818;DHT22;1924;48.078;11.516;2023-09-30T09:21:53;18.20;99.90
3818;DHT22;1924;48.078;11.516;2023-09-30T09:24:31;18.30;99.90
3818;DHT22;1924;48.078;11.516;2023-09-30T09:27:06;18.40;99.90
3818;DHT22;1924;48.078;11.516;2023-09-30T09:29:33;18.50;99.90
3818;DHT22;1924;48.078;11.516;2023-09-30T09:32:08;18.60;99.90
3818;DHT22;1924;48.078;11.516;2023-09-30T09:34:38;18.50;99.90
3818;DHT22;1924;48.078;11.516;2023-09-30T09:37:14;18.60;99.90
3818;DHT22;1924;48.078;11.516;2023-09-30T09:39:49;18.50;99.90
3818;DHT22;1924;48.078;11.516;2023-09-30T09:42:26;18.40;99.90
3818;DHT22;1924;48.078;11.516;2023-09-30T09:44:55;18.50;99.90
3818;DHT22;1924;48.078;11.516;2023-09-30T09:47:23;18.30;99.90
3818;DHT22;1924;48.078;11.516;2023-09-30T09:49:50;18.10;99.90
3818;DHT22;1924;48.078;11.516;2023-09-30T09:52:18;18.20;99.90
3818;DHT22;1924;48.078;11.516;2023-09-30T09:54:45;18.20;99.90
3818;DHT22;1924;48.078;11.516;2023-09-30T09:57:12;18.30;99.90
3818;DHT22;1924;48.078;11.516;2023-09-30T09:59:43;18.50;99.90
3818;DHT22;1924;48.078;11.516;2023-09-30T10:02:13;18.50;99.90
3818;DHT22;1924;48.078;11.516;2023-09-30T10:04:41;18.30;99.90
3818;DHT22;1924;48.078;11.516;2023-09-30T10:07:16;18.30;99.90
3818;DHT22;1924;48.078;11.516;2023-09-30T10:09:49;18.30;99.90
3818;DHT22;1924;48.078;11.516;2023-09-30T10:12:17;18.60;99.90
3818;DHT22;1924;48.078;11.516;2023-09-30T10:14:46;18.90;99.90
3818;DHT22;1924;48.078;11.516;2023-09-30T10:17:13;19.20;99.90
3818;DHT22;1924;48.078;11.516;2023-09-30T10:20:03;19.40;99.90
3818;DHT22;1924;48.078;11.516;2023-09-30T10:22:31;19.70;99.90
3818;DHT22;1924;48.078;11.516;2023-09-30T10:24:59;19.70;98.70
3818;DHT22;1924;48.078;11.516;2023-09-30T10:27:36;19.60;99.20
3818;DHT22;1924;48.078;11.516;2023-09-30T10:30:10;19.70;99.00
3818;DHT22;1924;48.078;11.516;2023-09-30T10:33:12;19.50;97.90
3818;DHT22;1924;48.078;11.516;2023-09-30T10:35:45;19.60;99.10
3818;DHT22;1924;48.078;11.516;2023-09-30T10:38:37;19.40;97.80
3818;DHT22;1924;48.078;11.516;2023-09-30T10:41:06;19.50;98.60
3818;DHT22;1924;48.078;11.516;2023-09-30T10:43:35;19.50;98.60
3818;DHT22;1924;48.078;11.516;2023-09-30T10:46:04;19.70;99.00
3818;DHT22;1924;48.078;11.516;2023-09-30T10:48:36;19.80;99.90
3818;DHT22;1924;48.078;11.516;2023-09-30T10:51:16;19.80;98.60
3818;DHT22;1924;48.078;11.516;2023-09-30T10:53:47;19.80;98.20
3818;DHT22;1924;48.078;11.516;2023-09-30T10:56:17;19.70;98.70
3818;DHT22;1924;48.078;11.516;2023-09-30T10:58:45;19.60;97.60
3818;DHT22;1924;48.078;11.516;2023-09-30T11:01:14;19.50;97.60
3818;DHT22;1924;48.078;11.516;2023-09-30T11:03:42;19.60;98.70
3818;DHT22;1924;48.078;11.516;2023-09-30T11:06:11;19.40;97.00
3818;DHT22;1924;48.078;11.516;2023-09-30T11:08:41;19.40;95.70
3818;DHT22;1924;48.078;11.516;2023-09-30T11:11:11;19.30;95.90
3818;DHT22;1924;48.078;11.516;2023-09-30T11:13:39;19.40;96.70
3818;DHT22;1924;48.078;11.516;2023-09-30T11:16:06;19.20;95.90
3818;DHT22;1924;48.078;11.516;2023-09-30T11:18:35;19.10;96.00
3818;DHT22;1924;48.078;11.516;2023-09-30T11:21:05;19.20;96.30
3818;DHT22;1924;48.078;11.516;2023-09-30T11:23:33;19.00;95.60
3818;DHT22;1924;48.078;11.516;2023-09-30T11:26:01;19.00;95.40
3818;DHT22;1924;48.078;11.516;2023-09-30T11:28:36;19.20;96.90
3818;DHT22;1924;48.078;11.516;2023-09-30T11:31:08;19.30;95.70
3818;DHT22;1924;48.078;11.516;2023-09-30T11:33:49;19.50;95.90
3818;DHT22;1924;48.078;11.516;2023-09-30T11:36:18;19.70;97.30
3818;DHT22;1924;48.078;11.516;2023-09-30T11:38:46;19.80;95.90
3818;DHT22;1924;48.078;11.516;2023-09-30T11:41:15;19.90;94.90
3818;DHT22;1924;48.078;11.516;2023-09-30T11:43:58;20.10;94.50
3818;DHT22;1924;48.078;11.516;2023-09-30T11:46:26;20.10;93.90
3818;DHT22;1924;48.078;11.516;2023-09-30T11:48:59;20.10;94.50
3818;DHT22;1924;48.078;11.516;2023-09-30T11:51:26;20.00;93.70
3818;DHT22;1924;48.078;11.516;2023-09-30T11:53:54;19.90;94.90
3818;DHT22;1924;48.078;11.516;2023-09-30T11:56:22;19.80;95.70
3818;DHT22;1924;48.078;11.516;2023-09-30T11:58:53;19.70;95.50
3818;DHT22;1924;48.078;11.516;2023-09-30T12:01:20;19.50;93.80
3818;DHT22;1924;48.078;11.516;2023-09-30T12:03:47;19.70;94.00
3818;DHT22;1924;48.078;11.516;2023-09-30T12:06:16;19.80;94.50
3818;DHT22;1924;48.078;11.516;2023-09-30T12:08:43;20.10;93.40
3818;DHT22;1924;48.078;11.516;2023-09-30T12:11:10;20.30;94.70
3818;DHT22;1924;48.078;11.516;2023-09-30T12:13:38;20.70;95.20
3818;DHT22;1924;48.078;11.516;2023-09-30T12:16:05;21.00;95.30
3818;DHT22;1924;48.078;11.516;2023-09-30T12:18:32;21.10;93.70
3818;DHT22;1924;48.078;11.516;2023-09-30T12:20:59;20.90;92.20
3818;DHT22;1924;48.078;11.516;2023-09-30T12:23:27;20.90;91.60
3818;DHT22;1924;48.078;11.516;2023-09-30T12:25:54;21.00;92.10
3818;DHT22;1924;48.078;11.516;2023-09-30T12:28:21;21.20;91.80
3818;DHT22;1924;48.078;11.516;2023-09-30T12:30:47;21.40;92.80
3818;DHT22;1924;48.078;11.516;2023-09-30T12:33:14;21.40;91.00
3818;DHT22;1924;48.078;11.516;2023-09-30T12:35:41;20.90;90.60
3818;DHT22;1924;48.078;11.516;2023-09-30T12:38:08;20.50;91.00
3818;DHT22;1924;48.078;11.516;2023-09-30T12:40:37;20.70;92.40
3818;DHT22;1924;48.078;11.516;2023-09-30T12:43:04;20.90;93.30
3818;DHT22;1924;48.078;11.516;2023-09-30T12:45:32;21.10;93.80
3818;DHT22;1924;48.078;11.516;2023-09-30T12:47:59;21.20;92.90
3818;DHT22;1924;48.078;11.516;2023-09-30T12:50:26;21.30;92.50
3818;DHT22;1924;48.078;11.516;2023-09-30T12:52:53;21.10;92.20
3818;DHT22;1924;48.078;11.516;2023-09-30T12:55:20;20.80;93.10
3818;DHT22;1924;48.078;11.516;2023-09-30T12:57:48;20.70;93.60
3818;DHT22;1924;48.078;11.516;2023-09-30T13:00:15;20.60;94.20
3818;DHT22;1924;48.078;11.516;2023-09-30T13:02:44;20.40;93.80
3818;DHT22;1924;48.078;11.516;2023-09-30T13:05:14;20.30;92.40
3818;DHT22;1924;48.078;11.516;2023-09-30T13:07:42;19.90;92.10
3818;DHT22;1924;48.078;11.516;2023-09-30T13:10:09;19.80;91.70
3818;DHT22;1924;48.078;11.516;2023-09-30T13:12:36;19.70;92.40
3818;DHT22;1924;48.078;11.516;2023-09-30T13:15:05;19.70;93.80
3818;DHT22;1924;48.078;11.516;2023-09-30T13:17:34;19.80;93.70
3818;DHT22;1924;48.078;11.516;2023-09-30T13:20:01;19.70;91.60
3818;DHT22;1924;48.078;11.516;2023-09-30T13:22:30;19.80;93.30
3818;DHT22;1924;48.078;11.516;2023-09-30T13:24:57;19.70;91.50
3818;DHT22;1924;48.078;11.516;2023-09-30T13:27:27;19.70;91.80
3818;DHT22;1924;48.078;11.516;2023-09-30T13:29:54;19.80;91.70
3818;DHT22;1924;48.078;11.516;2023-09-30T13:32:23;19.80;92.50
3818;DHT22;1924;48.078;11.516;2023-09-30T13:34:51;19.90;92.50
3818;DHT22;1924;48.078;11.516;2023-09-30T13:37:18;20.00;93.10
3818;DHT22;1924;48.078;11.516;2023-09-30T13:39:45;20.10;91.20
3818;DHT22;1924;48.078;11.516;2023-09-30T13:42:11;20.10;92.10
3818;DHT22;1924;48.078;11.516;2023-09-30T13:44:39;20.30;93.10
3818;DHT22;1924;48.078;11.516;2023-09-30T13:47:06;20.30;92.00
3818;DHT22;1924;48.078;11.516;2023-09-30T13:49:34;20.30;91.70
3818;DHT22;1924;48.078;11.516;2023-09-30T13:52:01;20.40;92.30
3818;DHT22;1924;48.078;11.516;2023-09-30T13:54:30;20.20;91.50
3818;DHT22;1924;48.078;11.516;2023-09-30T13:56:56;20.10;92.40
3818;DHT22;1924;48.078;11.516;2023-09-30T13:59:23;20.00;91.80
3818;DHT22;1924;48.078;11.516;2023-09-30T14:01:50;19.90;92.20
3818;DHT22;1924;48.078;11.516;2023-09-30T14:04:17;20.00;92.30
3818;DHT22;1924;48.078;11.516;2023-09-30T14:06:45;19.90;91.60
3818;DHT22;1924;48.078;11.516;2023-09-30T14:09:13;19.90;93.00
3818;DHT22;1924;48.078;11.516;2023-09-30T14:11:40;20.00;93.10
3818;DHT22;1924;48.078;11.516;2023-09-30T14:14:07;20.10;93.40
3818;DHT22;1924;48.078;11.516;2023-09-30T14:16:35;20.10;94.40
3818;DHT22;1924;48.078;11.516;2023-09-30T14:19:04;20.10;94.30
3818;DHT22;1924;48.078;11.516;2023-09-30T14:21:31;20.10;93.70
3818;DHT22;1924;48.078;11.516;2023-09-30T14:23:59;19.90;93.70
3818;DHT22;1924;48.078;11.516;2023-09-30T14:26:30;19.80;92.40
3818;DHT22;1924;48.078;11.516;2023-09-30T14:28:57;19.80;93.80
3818;DHT22;1924;48.078;11.516;2023-09-30T14:31:24;19.80;93.70
3818;DHT22;1924;48.078;11.516;2023-09-30T14:33:51;19.90;94.40
3818;DHT22;1924;48.078;11.516;2023-09-30T14:36:18;19.90;94.80
3818;DHT22;1924;48.078;11.516;2023-09-30T14:38:45;19.90;95.00
3818;DHT22;1924;48.078;11.516;2023-09-30T14:41:13;19.80;95.40
3818;DHT22;1924;48.078;11.516;2023-09-30T14:43:40;19.80;94.60
3818;DHT22;1924;48.078;11.516;2023-09-30T14:46:07;19.70;94.20
3818;DHT22;1924;48.078;11.516;2023-09-30T14:48:34;19.50;93.00
3818;DHT22;1924;48.078;11.516;2023-09-30T14:51:02;19.40;93.10
3818;DHT22;1924;48.078;11.516;2023-09-30T14:53:30;19.40;93.40
3818;DHT22;1924;48.078;11.516;2023-09-30T14:55:57;19.50;94.70
3818;DHT22;1924;48.078;11.516;2023-09-30T14:58:25;19.50;94.30
3818;DHT22;1924;48.078;11.516;2023-09-30T15:00:52;19.40;93.40
3818;DHT22;1924;48.078;11.516;2023-09-30T15:03:25;19.30;93.30
3818;DHT22;1924;48.078;11.516;2023-09-30T15:05:58;19.30;93.30
3818;DHT22;1924;48.078;11.516;2023-09-30T15:08:28;19.30;94.70
3818;DHT22;1924;48.078;11.516;2023-09-30T15:10:57;19.30;94.10
3818;DHT22;1924;48.078;11.516;2023-09-30T15:13:26;19.40;94.60
3818;DHT22;1924;48.078;11.516;2023-09-30T15:15:53;19.30;93.40
3818;DHT22;1924;48.078;11.516;2023-09-30T15:18:19;19.30;95.00
3818;DHT22;1924;48.078;11.516;2023-09-30T15:20:49;19.40;96.20
3818;DHT22;1924;48.078;11.516;2023-09-30T15:23:16;19.30;96.20
3818;DHT22;1924;48.078;11.516;2023-09-30T15:25:43;19.30;96.70
3818;DHT22;1924;48.078;11.516;2023-09-30T15:28:10;19.30;96.40
3818;DHT22;1924;48.078;11.516;2023-09-30T15:30:39;19.30;97.70
3818;DHT22;1924;48.078;11.516;2023-09-30T15:33:06;19.30;98.10
3818;DHT22;1924;48.078;11.516;2023-09-30T15:35:34;19.20;97.10
3818;DHT22;1924;48.078;11.516;2023-09-30T15:38:00;19.20;98.50
3818;DHT22;1924;48.078;11.516;2023-09-30T15:40:31;19.00;93.80
3818;DHT22;1924;48.078;11.516;2023-09-30T15:42:58;19.00;95.00
3818;DHT22;1924;48.078;11.516;2023-09-30T15:45:26;19.10;96.40
3818;DHT22;1924;48.078;11.516;2023-09-30T15:47:57;19.10;96.80
3818;DHT22;1924;48.078;11.516;2023-09-30T15:50:26;19.10;97.70
3818;DHT22;1924;48.078;11.516;2023-09-30T15:52:53;19.10;97.40
3818;DHT22;1924;48.078;11.516;2023-09-30T15:55:20;19.10;97.40
3818;DHT22;1924;48.078;11.516;2023-09-30T15:57:47;19.10;97.60
3818;DHT22;1924;48.078;11.516;2023-09-30T16:00:14;19.00;97.00
3818;DHT22;1924;48.078;11.516;2023-09-30T16:02:45;19.00;97.90
3818;DHT22;1924;48.078;11.516;2023-09-30T16:05:13;18.90;95.50
3818;DHT22;1924;48.078;11.516;2023-09-30T16:07:40;18.80;95.10
3818;DHT22;1924;48.078;11.516;2023-09-30T16:10:08;18.70;95.90
3818;DHT22;1924;48.078;11.516;2023-09-30T16:12:38;18.70;96.30
3818;DHT22;1924;48.078;11.516;2023-09-30T16:15:08;18.70;97.30
3818;DHT22;1924;48.078;11.516;2023-09-30T16:17:37;18.70;97.90
3818;DHT22;1924;48.078;11.516;2023-09-30T16:20:05;18.70;98.80
3818;DHT22;1924;48.078;11.516;2023-09-30T16:22:34;18.60;98.50
3818;DHT22;1924;48.078;11.516;2023-09-30T16:25:01;18.60;98.70
3818;DHT22;1924;48.078;11.516;2023-09-30T16:27:29;18.50;99.10
3818;DHT22;1924;48.078;11.516;2023-09-30T16:29:56;18.50;99.40
3818;DHT22;1924;48.078;11.516;2023-09-30T16:32:23;18.40;99.50
3818;DHT22;1924;48.078;11.516;2023-09-30T16:34:49;18.40;99.70
3818;DHT22;1924;48.078;11.516;2023-09-30T16:37:16;18.40;99.80
3818;DHT22;1924;48.078;11.516;2023-09-30T16:39:44;18.30;99.10
3818;DHT22;1924;48.078;11.516;2023-09-30T16:42:11;18.20;98.70
3818;DHT22;1924;48.078;11.516;2023-09-30T16:44:38;18.20;98.70
3818;DHT22;1924;48.078;11.516;2023-09-30T16:47:05;18.10;98.80
3818;DHT22;1924;48.078;11.516;2023-09-30T16:49:32;18.10;99.30
3818;DHT22;1924;48.078;11.516;2023-09-30T16:52:02;18.00;99.10
3818;DHT22;1924;48.078;11.516;2023-09-30T16:54:29;18.00;99.10
3818;DHT22;1924;48.078;11.516;2023-09-30T16:56:58;17.90;99.40
3818;DHT22;1924;48.078;11.516;2023-09-30T16:59:24;17.90;99.60
3818;DHT22;1924;48.078;11.516;2023-09-30T17:01:51;17.80;99.60
3818;DHT22;1924;48.078;11.516;2023-09-30T17:04:18;17.80;99.80
3818;DHT22;1924;48.078;11.516;2023-09-30T17:06:45;17.70;99.90
3818;DHT22;1924;48.078;11.516;2023-09-30T17:09:12;17.60;99.90
3818;DHT22;1924;48.078;11.516;2023-09-30T17:11:39;17.60;99.90
3818;DHT22;1924;48.078;11.516;2023-09-30T17:14:07;17.60;99.90
3818;DHT22;1924;48.078;11.516;2023-09-30T17:16:34;17.50;99.90
3818;DHT22;1924;48.078;11.516;2023-09-30T17:19:01;17.50;99.90
3818;DHT22;1924;48.078;11.516;2023-09-30T17:21:27;17.40;99.90
3818;DHT22;1924;48.078;11.516;2023-09-30T17:23:54;17.40;99.90
3818;DHT22;1924;48.078;11.516;2023-09-30T17:26:21;17.30;99.90
3818;DHT22;1924;48.078;11.516;2023-09-30T17:28:47;17.30;99.90
3818;DHT22;1924;48.078;11.516;2023-09-30T17:31:16;17.30;99.90
3818;DHT22;1924;48.078;11.516;2023-09-30T17:33:43;17.30;99.90
3818;DHT22;1924;48.078;11.516;2023-09-30T17:36:10;17.10;99.90
3818;DHT22;1924;48.078;11.516;2023-09-30T17:38:37;17.10;99.90
3818;DHT22;1924;48.078;11.516;2023-09-30T17:41:05;17.10;99.90
3818;DHT22;1924;48.078;11.516;2023-09-30T17:43:32;17.00;99.90
3818;DHT22;1924;48.078;11.516;2023-09-30T17:46:07;17.00;99.90
3818;DHT22;1924;48.078;11.516;2023-09-30T17:48:35;17.00;99.90
3818;DHT22;1924;48.078;11.516;2023-09-30T17:51:02;16.90;99.90
3818;DHT22;1924;48.078;11.516;2023-09-30T17:53:41;16.80;99.90
3818;DHT22;1924;48.078;11.516;2023-09-30T17:56:13;16.80;99.90
3818;DHT22;1924;48.078;11.516;2023-09-30T17:58:39;16.80;99.90
3818;DHT22;1924;48.078;11.516;2023-09-30T18:01:06;16.80;99.90
3818;DHT22;1924;48.078;11.516;2023-09-30T18:03:34;16.80;99.90
3818;DHT22;1924;48.078;11.516;2023-09-30T18:06:05;16.80;99.90
3818;DHT22;1924;48.078;11.516;2023-09-30T18:08:32;16.80;99.90
3818;DHT22;1924;48.078;11.516;2023-09-30T18:11:02;16.70;99.90
3818;DHT22;1924;48.078;11.516;2023-09-30T18:13:29;16.60;99.90
3818;DHT22;1924;48.078;11.516;2023-09-30T18:15:57;16.60;99.90
3818;DHT22;1924;48.078;11.516;2023-09-30T18:18:24;16.50;99.90
3818;DHT22;1924;48.078;11.516;2023-09-30T18:20:52;16.40;99.90
3818;DHT22;1924;48.078;11.516;2023-09-30T18:23:18;16.30;99.90
3818;DHT22;1924;48.078;11.516;2023-09-30T18:25:47;16.30;99.90